createdAt,value
2022-11-03T00:01:38.914Z,6.60
2022-11-03T00:06:42.619Z,6.40
2022-11-03T00:11:46.604Z,4.30
2022-11-03T00:16:49.248Z,5.83
2022-11-03T00:21:52.605Z,8.33
2022-11-03T00:26:54.893Z,5.50
2022-11-03T00:31:57.228Z,4.50
2022-11-03T00:36:59.824Z,3.97
2022-11-03T00:42:02.120Z,7.03
2022-11-03T00:47:04.539Z,6.30
2022-11-03T00:52:06.876Z,5.23
2022-11-03T00:57:09.111Z,6.37
2022-11-03T01:02:11.435Z,6.00
2022-11-03T01:07:13.797Z,6.60
2022-11-03T01:12:18.689Z,4.57
2022-11-03T01:17:27.187Z,5.43
2022-11-03T01:22:29.463Z,6.73
2022-11-03T01:27:34.547Z,5.67
2022-11-03T01:32:36.777Z,5.00
2022-11-03T01:37:39.041Z,5.57
2022-11-03T01:42:41.323Z,6.27
2022-11-03T01:47:44.008Z,5.80
2022-11-03T01:52:52.172Z,6.37
2022-11-03T01:58:29.668Z,4.07
2022-11-03T02:03:37.683Z,5.43
2022-11-03T02:08:51.060Z,3.97
2022-11-03T02:13:53.357Z,5.77
2022-11-03T02:18:57.181Z,5.47
2022-11-03T02:24:09.073Z,6.47
2022-11-03T02:29:11.328Z,4.17
2022-11-03T02:34:48.663Z,3.90
2022-11-03T02:39:58.688Z,8.63
2022-11-03T02:45:04.680Z,5.40
2022-11-03T02:50:10.380Z,6.33
2022-11-03T02:55:37.002Z,5.70
2022-11-03T03:01:14.852Z,5.53
2022-11-03T03:06:34.828Z,5.97
2022-11-03T03:11:42.926Z,6.37
2022-11-03T03:17:18.632Z,7.40
2022-11-03T03:22:42.874Z,5.40
2022-11-03T03:27:49.827Z,6.33
2022-11-03T03:32:54.336Z,6.20
2022-11-03T03:38:01.411Z,7.33
2022-11-03T03:43:06.508Z,5.33
2022-11-03T03:48:08.992Z,5.00
2022-11-03T03:53:13.132Z,5.77
2022-11-03T03:58:16.940Z,5.33
2022-11-03T04:03:21.948Z,4.93
2022-11-03T04:08:24.234Z,6.37
2022-11-03T04:13:45.008Z,6.63
2022-11-03T04:19:05.749Z,8.20
2022-11-03T04:24:08.064Z,7.00
2022-11-03T04:29:11.712Z,7.93
2022-11-03T04:34:14.012Z,7.73
2022-11-03T04:39:19.386Z,8.33
2022-11-03T04:44:22.247Z,4.53
2022-11-03T04:49:24.615Z,7.00
2022-11-03T04:54:27.114Z,6.27
2022-11-03T04:59:29.647Z,5.67
2022-11-03T05:04:31.985Z,5.87
2022-11-03T05:09:36.803Z,7.27
2022-11-03T05:14:42.569Z,6.13
2022-11-03T05:19:45.174Z,7.53
2022-11-03T05:24:47.708Z,8.50
2022-11-03T05:29:53.996Z,8.97
2022-11-03T05:34:58.718Z,7.57
2022-11-03T05:40:14.718Z,6.03
2022-11-03T05:45:26.111Z,5.43
2022-11-03T05:50:30.612Z,5.20
2022-11-03T05:55:36.918Z,5.80
2022-11-03T06:00:47.136Z,6.60
2022-11-03T06:05:51.563Z,5.60
2022-11-03T06:10:56.395Z,6.37
2022-11-03T06:16:03.237Z,5.50
2022-11-03T06:21:21.424Z,6.20
2022-11-03T06:26:27.035Z,8.17
2022-11-03T06:31:32.496Z,5.00
2022-11-03T06:36:37.528Z,4.97
2022-11-03T06:41:40.050Z,4.93
2022-11-03T06:46:42.371Z,6.60
2022-11-03T06:51:44.636Z,5.90
2022-11-03T06:56:46.967Z,5.13
2022-11-03T07:01:55.043Z,4.47
2022-11-03T07:07:02.651Z,4.50
2022-11-03T07:12:13.712Z,6.77
2022-11-03T07:17:21.649Z,3.83
2022-11-03T07:22:25.744Z,3.43
2022-11-03T07:27:31.364Z,4.50
2022-11-03T07:32:36.231Z,6.50
2022-11-03T07:37:38.698Z,7.17
2022-11-03T07:42:40.959Z,5.80
2022-11-03T07:47:44.160Z,4.83
2022-11-03T07:52:46.434Z,5.73
2022-11-03T07:57:48.760Z,5.90
2022-11-03T08:03:00.449Z,4.67
2022-11-03T08:08:02.731Z,4.90
2022-11-03T08:13:05.271Z,5.23
2022-11-03T08:18:07.732Z,4.07
2022-11-03T08:23:25.296Z,5.73
2022-11-03T08:28:28.925Z,5.13
2022-11-03T08:33:35.358Z,4.37
2022-11-03T08:38:38.038Z,3.90
2022-11-03T08:43:40.316Z,4.20
2022-11-03T08:48:42.692Z,4.53
2022-11-03T08:53:46.194Z,5.83
2022-11-03T08:58:48.646Z,3.10
2022-11-03T09:03:51.062Z,4.73
2022-11-03T09:14:17.249Z,10.13
2022-11-03T09:19:19.534Z,6.40
2022-11-03T09:24:23.379Z,5.83
2022-11-03T09:29:25.745Z,7.40
2022-11-03T09:34:29.273Z,4.60
2022-11-03T09:39:33.551Z,5.37
2022-11-03T09:44:36.637Z,4.40
2022-11-03T09:49:38.928Z,6.87
2022-11-03T09:54:41.971Z,5.13
2022-11-03T09:59:46.551Z,7.60
2022-11-03T10:04:49.630Z,5.47
2022-11-03T10:09:53.627Z,6.70
2022-11-03T10:14:56.518Z,7.43
2022-11-03T10:20:01.853Z,7.67
2022-11-03T10:25:37.452Z,7.27
2022-11-03T10:31:12.707Z,7.30
2022-11-03T10:36:22.471Z,7.40
2022-11-03T10:41:29.980Z,7.43
2022-11-03T10:52:07.854Z,9.80
2022-11-03T10:57:10.212Z,9.27
2022-11-03T11:02:17.405Z,5.80
2022-11-03T11:07:25.146Z,3.60
2022-11-03T11:12:27.703Z,2.93
2022-11-03T11:17:45.188Z,4.13
2022-11-03T11:22:48.379Z,4.67
2022-11-03T11:27:53.075Z,1.90
2022-11-03T11:33:13.847Z,2.47
2022-11-03T11:39:04.260Z,1.97
2022-11-03T11:44:40.139Z,2.87
2022-11-03T11:49:42.437Z,3.87
2022-11-03T11:54:45.143Z,2.47
2022-11-03T11:59:49.427Z,2.27
2022-11-03T12:05:01.122Z,2.50
2022-11-03T12:10:27.890Z,3.20
2022-11-03T12:15:56.425Z,3.33
2022-11-03T12:20:59.431Z,2.87
2022-11-03T12:26:02.400Z,2.10
2022-11-03T12:31:04.828Z,3.77
2022-11-03T12:36:08.129Z,2.13
2022-11-03T12:41:24.343Z,4.37
2022-11-03T12:46:27.060Z,6.23
2022-11-03T12:51:29.747Z,7.03
2022-11-03T12:56:32.067Z,5.00
2022-11-03T13:01:34.403Z,3.37
2022-11-03T13:06:36.791Z,2.77
2022-11-03T13:11:57.986Z,4.30
2022-11-03T13:17:00.648Z,2.10
2022-11-03T13:22:03.623Z,1.80
2022-11-03T13:27:06.004Z,1.67
2022-11-03T13:32:08.837Z,2.70
2022-11-03T13:37:11.194Z,2.90
2022-11-03T13:42:13.760Z,2.73
2022-11-03T13:47:16.025Z,2.30
2022-11-03T13:52:19.552Z,1.80
2022-11-03T14:08:07.105Z,2.87
2022-11-03T14:13:09.931Z,2.30
2022-11-03T14:18:12.419Z,2.37
2022-11-03T14:23:14.703Z,2.40
2022-11-03T14:28:22.898Z,2.03
2022-11-03T14:33:29.606Z,1.70
2022-11-03T14:38:31.910Z,2.97
2022-11-03T14:43:35.231Z,2.30
2022-11-03T14:48:37.638Z,2.53
2022-11-03T14:53:39.896Z,3.07
2022-11-03T14:58:42.136Z,2.50
2022-11-03T15:03:44.833Z,3.47
2022-11-03T15:08:49.790Z,3.33
2022-11-03T15:13:56.044Z,2.57
2022-11-03T15:18:59.182Z,3.50
2022-11-03T15:29:24.089Z,2.27
2022-11-03T15:34:27.029Z,2.10
2022-11-03T15:39:29.727Z,2.67
2022-11-03T15:44:31.998Z,2.00
2022-11-03T15:49:34.397Z,1.60
2022-11-03T15:54:42.152Z,2.13
2022-11-03T15:59:45.180Z,2.27
2022-11-03T16:04:47.486Z,2.50
2022-11-03T16:09:50.358Z,3.13
2022-11-03T16:14:53.366Z,3.00
2022-11-03T16:19:56.310Z,2.40
2022-11-03T16:24:59.409Z,2.03
2022-11-03T16:30:01.916Z,1.93
2022-11-03T16:35:04.564Z,1.97
2022-11-03T16:40:07.382Z,3.37
2022-11-03T16:45:19.079Z,2.57
2022-11-03T16:50:21.413Z,2.20
2022-11-03T16:55:23.706Z,2.30
2022-11-03T17:00:26.118Z,2.00
2022-11-03T17:05:28.482Z,2.07
2022-11-03T17:10:31.943Z,4.20
2022-11-03T17:15:34.280Z,3.93
2022-11-03T17:20:36.610Z,2.43
2022-11-03T17:25:39.011Z,4.13
2022-11-03T17:30:41.428Z,1.83
2022-11-03T17:35:46.031Z,2.10
2022-11-03T17:40:49.026Z,2.60
2022-11-03T17:45:51.434Z,3.03
2022-11-03T17:50:56.063Z,2.80
2022-11-03T18:01:25.004Z,1.77
2022-11-03T18:06:27.407Z,1.97
2022-11-03T18:11:49.524Z,2.20
2022-11-03T18:16:52.417Z,1.90
2022-11-03T18:21:54.677Z,1.77
2022-11-03T18:26:56.979Z,1.63
2022-11-03T18:32:00.974Z,1.50
2022-11-03T18:37:03.303Z,1.90
2022-11-03T18:42:16.244Z,2.37
2022-11-03T18:47:18.460Z,1.70
2022-11-03T18:52:21.195Z,1.10
2022-11-03T18:57:26.325Z,1.40
2022-11-03T19:02:28.690Z,2.43
2022-11-03T19:07:32.968Z,1.33
2022-11-03T19:12:39.050Z,2.10
2022-11-03T19:17:41.651Z,1.30
2022-11-03T19:22:45.352Z,1.83
2022-11-03T19:27:49.615Z,1.70
2022-11-03T19:32:55.849Z,2.10
2022-11-03T19:38:09.462Z,3.23
2022-11-03T19:43:13.291Z,1.97
2022-11-03T19:48:24.141Z,2.80
2022-11-03T19:53:29.862Z,2.37
2022-11-03T19:58:32.545Z,2.83
2022-11-03T20:03:34.977Z,2.17
2022-11-03T20:08:38.094Z,2.07
2022-11-03T20:13:42.959Z,2.03
2022-11-03T20:18:45.410Z,1.93
2022-11-03T20:23:49.141Z,2.20
2022-11-03T20:28:53.831Z,1.50
2022-11-03T20:33:56.113Z,1.70
2022-11-03T20:38:59.494Z,2.13
2022-11-03T20:44:03.074Z,2.30
2022-11-03T20:49:05.552Z,1.53
2022-11-03T20:54:16.091Z,1.70
2022-11-03T20:59:21.184Z,1.83
2022-11-03T21:04:24.263Z,1.80
2022-11-03T21:09:26.567Z,2.60
2022-11-03T21:14:30.368Z,2.30
2022-11-03T21:19:52.360Z,2.80
2022-11-03T21:24:54.698Z,1.67
2022-11-03T21:29:59.691Z,1.60
2022-11-03T21:35:02.397Z,2.10
2022-11-03T21:40:06.116Z,2.07
2022-11-03T21:45:09.228Z,1.67
2022-11-03T21:50:13.536Z,1.93
2022-11-03T21:55:15.837Z,1.40
2022-11-03T22:00:18.309Z,1.40
2022-11-03T22:05:20.679Z,1.90
2022-11-03T22:10:23.239Z,3.17
2022-11-03T22:15:44.283Z,1.57
2022-11-03T22:21:05.059Z,1.80
2022-11-03T22:26:30.424Z,1.47
2022-11-03T22:31:41.644Z,1.10
2022-11-03T22:36:43.963Z,1.30
2022-11-03T22:42:06.614Z,1.20
2022-11-03T22:47:10.405Z,1.63
2022-11-03T22:52:18.741Z,1.10
2022-11-03T22:57:21.031Z,1.57
2022-11-03T23:02:23.361Z,1.00
2022-11-03T23:07:31.191Z,1.80
2022-11-03T23:12:35.391Z,1.00
2022-11-03T23:17:56.190Z,1.43
2022-11-03T23:22:58.473Z,1.03
2022-11-03T23:28:00.708Z,1.07
2022-11-03T23:33:03.667Z,1.63
2022-11-03T23:38:06.882Z,1.70
2022-11-03T23:43:09.374Z,1.30
2022-11-03T23:48:30.191Z,1.30
2022-11-03T23:53:32.456Z,1.83
2022-11-03T23:58:34.678Z,2.53
